createdAt,value
2022-11-27T02:39:03.571Z,22.15
2022-11-27T02:41:42.614Z,22.11
2022-11-27T02:44:12.881Z,22.16
2022-11-27T02:46:43.150Z,22.23
2022-11-27T02:49:15.117Z,22.28
2022-11-27T02:52:00.430Z,22.34
2022-11-27T02:54:31.454Z,22.39
2022-11-27T02:57:02.675Z,22.43
2022-11-27T02:59:33.287Z,22.49
2022-11-27T03:02:07.580Z,22.54
2022-11-27T03:04:38.537Z,22.58
2022-11-27T03:07:11.561Z,22.62
2022-11-27T03:09:49.779Z,22.64
2022-11-27T03:12:20.104Z,22.66
2022-11-27T03:14:50.229Z,22.68
2022-11-27T03:17:38.124Z,22.71
2022-11-27T03:20:16.611Z,22.72
2022-11-27T03:22:48.142Z,22.75
2022-11-27T03:25:19.893Z,22.77
2022-11-27T03:27:52.479Z,22.78
2022-11-27T03:30:23.422Z,22.78
2022-11-27T03:32:54.039Z,22.77
2022-11-27T03:35:25.472Z,22.78
2022-11-27T03:38:06.130Z,22.76
2022-11-27T03:40:42.115Z,22.78
2022-11-27T03:43:16.575Z,22.78
2022-11-27T03:46:03.677Z,22.78
2022-11-27T03:48:42.100Z,22.78
2022-11-27T03:51:20.673Z,22.78
2022-11-27T03:53:56.203Z,22.78
2022-11-27T03:56:32.126Z,22.78
2022-11-27T03:59:07.178Z,22.78
2022-11-27T04:01:37.433Z,22.78
2022-11-27T04:04:07.778Z,22.77
2022-11-27T04:06:37.930Z,22.77
2022-11-27T04:09:08.408Z,22.78
2022-11-27T04:14:17.235Z,22.86
2022-11-27T04:16:47.487Z,22.82
2022-11-27T04:19:17.665Z,22.85
2022-11-27T04:21:47.929Z,22.85
2022-11-27T04:24:18.320Z,22.87
2022-11-27T04:26:48.622Z,22.89
2022-11-27T04:29:18.941Z,22.91
2022-11-27T04:31:48.962Z,22.93
2022-11-27T04:34:19.191Z,22.94
2022-11-27T04:36:49.311Z,22.95
2022-11-27T04:39:19.495Z,22.95
2022-11-27T04:41:49.923Z,22.97
2022-11-27T04:44:19.986Z,22.98
2022-11-27T04:46:50.267Z,22.98
2022-11-27T04:49:20.483Z,22.98
2022-11-27T04:51:50.924Z,22.99
2022-11-27T04:54:20.755Z,22.99
2022-11-27T04:56:53.762Z,23.00
2022-11-27T04:59:24.877Z,23.00
2022-11-27T05:01:56.125Z,23.01
2022-11-27T05:04:26.771Z,23.00
2022-11-27T05:06:56.828Z,23.01
2022-11-27T05:09:27.460Z,23.01
2022-11-27T05:11:57.521Z,23.00
2022-11-27T05:14:29.080Z,23.00
2022-11-27T05:17:00.353Z,23.01
2022-11-27T05:19:31.384Z,23.01
2022-11-27T05:22:01.546Z,23.01
2022-11-27T05:24:31.935Z,23.00
2022-11-27T05:27:02.061Z,23.00
2022-11-27T05:29:32.265Z,23.00
2022-11-27T05:32:07.968Z,23.00
2022-11-27T05:34:38.507Z,22.98
2022-11-27T05:37:12.883Z,22.98
2022-11-27T05:39:42.515Z,22.98
2022-11-27T05:42:13.015Z,22.98
2022-11-27T05:44:46.027Z,22.98
2022-11-27T05:47:17.763Z,22.98
2022-11-27T05:49:48.190Z,23.01
2022-11-27T05:52:19.987Z,23.05
2022-11-27T05:54:49.953Z,23.05
2022-11-27T05:57:20.234Z,23.06
2022-11-27T05:59:50.320Z,23.10
2022-11-27T06:02:23.864Z,23.10
2022-11-27T06:04:52.816Z,23.13
2022-11-27T06:07:25.366Z,23.08
2022-11-27T06:09:55.861Z,23.14
2022-11-27T06:12:30.079Z,23.13
2022-11-27T06:15:00.474Z,23.14
2022-11-27T06:17:30.712Z,23.15
2022-11-27T06:20:00.856Z,23.15
2022-11-27T06:22:31.287Z,23.15
2022-11-27T06:25:01.547Z,23.15
2022-11-27T06:27:34.601Z,23.02
2022-11-27T06:30:04.520Z,23.02
2022-11-27T06:32:34.844Z,23.16
2022-11-27T06:35:12.123Z,23.16
2022-11-27T06:38:08.935Z,23.16
2022-11-27T06:41:06.441Z,23.16
2022-11-27T06:43:44.551Z,23.15
2022-11-27T06:46:20.825Z,23.13
2022-11-27T06:48:52.130Z,23.14
2022-11-27T06:51:25.029Z,23.14
2022-11-27T06:54:09.748Z,23.06
2022-11-27T06:56:41.188Z,23.13
2022-11-27T06:59:33.057Z,23.13
2022-11-27T07:02:05.905Z,23.12
2022-11-27T07:04:44.875Z,23.13
2022-11-27T07:07:19.736Z,23.11
2022-11-27T07:09:50.196Z,23.11
2022-11-27T07:12:20.416Z,23.10
2022-11-27T07:14:50.593Z,23.09
2022-11-27T07:17:20.865Z,23.09
2022-11-27T07:19:55.335Z,23.08
2022-11-27T07:22:26.157Z,23.07
2022-11-27T07:24:57.190Z,23.06
2022-11-27T07:27:27.807Z,23.06
2022-11-27T07:29:58.030Z,23.01
2022-11-27T07:32:28.464Z,23.05
2022-11-27T07:34:58.587Z,23.07
2022-11-27T07:37:28.952Z,23.07
2022-11-27T07:40:02.882Z,23.08
2022-11-27T07:42:39.547Z,23.09
2022-11-27T07:45:03.678Z,23.11
2022-11-27T07:47:33.845Z,23.13
2022-11-27T07:50:03.924Z,23.15
2022-11-27T07:52:39.553Z,23.16
2022-11-27T07:55:05.875Z,23.18
2022-11-27T07:57:36.004Z,23.18
2022-11-27T08:00:06.985Z,23.20
2022-11-27T08:02:36.946Z,23.19
2022-11-27T08:05:12.376Z,23.19
2022-11-27T08:07:39.499Z,23.20
2022-11-27T08:10:10.378Z,23.19
2022-11-27T08:12:40.488Z,23.21
2022-11-27T08:15:11.706Z,23.20
2022-11-27T08:17:43.710Z,23.20
2022-11-27T08:20:14.174Z,23.20
2022-11-27T08:22:44.323Z,23.20
2022-11-27T08:25:14.757Z,23.19
2022-11-27T08:27:46.170Z,23.20
2022-11-27T08:30:16.712Z,23.20
2022-11-27T08:32:47.118Z,23.20
2022-11-27T08:35:17.244Z,23.18
2022-11-27T08:37:50.332Z,23.19
2022-11-27T08:40:20.639Z,23.18
2022-11-27T08:42:50.835Z,23.17
2022-11-27T08:45:21.143Z,23.17
2022-11-27T08:47:51.664Z,23.16
2022-11-27T08:50:22.028Z,23.15
2022-11-27T08:52:52.432Z,23.15
2022-11-27T08:55:22.964Z,23.13
2022-11-27T08:57:54.284Z,23.14
2022-11-27T09:00:28.170Z,23.09
2022-11-27T09:02:58.505Z,23.10
2022-11-27T09:05:29.208Z,23.13
2022-11-27T09:08:00.673Z,23.11
2022-11-27T09:10:30.653Z,23.10
2022-11-27T09:13:01.604Z,23.10
2022-11-27T09:15:31.754Z,23.09
2022-11-27T09:18:02.189Z,23.10
2022-11-27T09:20:32.336Z,23.11
2022-11-27T09:23:03.514Z,23.11
2022-11-27T09:25:33.803Z,23.14
2022-11-27T09:28:04.143Z,23.15
2022-11-27T09:30:34.373Z,23.16
2022-11-27T09:33:04.826Z,23.18
2022-11-27T09:35:35.321Z,23.19
2022-11-27T09:38:05.460Z,23.19
2022-11-27T09:40:36.083Z,23.19
2022-11-27T09:43:11.137Z,23.20
2022-11-27T09:45:49.601Z,23.20
2022-11-27T09:48:21.267Z,23.21
2022-11-27T09:50:52.478Z,23.20
2022-11-27T09:53:29.082Z,23.20
2022-11-27T09:55:59.557Z,23.20
2022-11-27T09:58:42.841Z,23.19
2022-11-27T10:01:14.813Z,23.20
2022-11-27T10:03:45.259Z,23.19
2022-11-27T10:06:35.762Z,23.18
2022-11-27T10:09:20.333Z,23.18
2022-11-27T10:12:20.094Z,23.17
2022-11-27T10:15:10.202Z,23.17
2022-11-27T10:17:45.899Z,23.17
2022-11-27T10:20:24.736Z,23.14
2022-11-27T10:23:04.058Z,23.14
2022-11-27T10:25:45.237Z,23.12
2022-11-27T10:28:29.990Z,23.13
2022-11-27T10:31:05.290Z,23.11
2022-11-27T10:33:58.145Z,23.10
2022-11-27T10:36:33.176Z,23.10
2022-11-27T10:39:03.160Z,23.09
2022-11-27T10:41:49.299Z,23.08
2022-11-27T10:44:23.968Z,23.08
2022-11-27T10:46:54.434Z,23.09
2022-11-27T10:49:25.588Z,23.08
2022-11-27T10:51:56.609Z,23.10
2022-11-27T10:54:33.281Z,23.13
2022-11-27T10:57:38.889Z,23.13
2022-11-27T11:00:11.771Z,23.15
2022-11-27T11:02:42.031Z,23.16
2022-11-27T11:08:07.506Z,23.26
2022-11-27T11:10:39.286Z,23.21
2022-11-27T11:13:23.431Z,23.22
2022-11-27T11:16:02.100Z,23.24
2022-11-27T11:18:37.567Z,23.23
2022-11-27T11:21:09.684Z,23.24
2022-11-27T11:23:41.600Z,23.23
2022-11-27T11:26:19.875Z,23.23
2022-11-27T11:28:52.520Z,23.23
2022-11-27T11:31:36.902Z,23.23
2022-11-27T11:34:09.569Z,23.24
2022-11-27T11:36:39.875Z,23.24
2022-11-27T11:39:11.745Z,23.23
2022-11-27T11:41:41.674Z,23.22
2022-11-27T11:44:20.229Z,23.22
2022-11-27T11:47:00.010Z,23.21
2022-11-27T11:49:30.564Z,23.20
2022-11-27T11:52:12.822Z,23.21
2022-11-27T11:55:11.927Z,23.19
2022-11-27T11:58:04.492Z,23.19
2022-11-27T12:01:04.741Z,23.18
2022-11-27T12:03:29.654Z,23.17
2022-11-27T12:06:21.804Z,23.17
2022-11-27T12:09:12.816Z,23.16
2022-11-27T12:11:57.741Z,23.15
2022-11-27T12:14:49.015Z,23.15
2022-11-27T12:17:47.008Z,23.13
2022-11-27T12:20:22.692Z,23.11
2022-11-27T12:23:04.855Z,23.11
2022-11-27T12:25:43.319Z,23.12
2022-11-27T12:28:35.442Z,23.12
2022-11-27T12:31:17.459Z,23.12
2022-11-27T12:34:06.640Z,23.14
2022-11-27T12:36:39.246Z,23.15
2022-11-27T12:39:29.965Z,23.16
2022-11-27T12:42:22.403Z,23.17
2022-11-27T12:45:03.239Z,23.19
2022-11-27T12:47:40.411Z,23.21
2022-11-27T12:50:26.061Z,23.23
2022-11-27T12:53:09.943Z,23.23
2022-11-27T12:55:40.197Z,23.23
2022-11-27T12:58:14.803Z,23.25
2022-11-27T13:00:44.786Z,23.25
2022-11-27T13:03:17.721Z,23.26
2022-11-27T13:05:50.456Z,23.25
2022-11-27T13:08:42.296Z,23.25
2022-11-27T13:11:14.580Z,23.25
2022-11-27T13:13:52.108Z,23.25
2022-11-27T13:16:33.063Z,23.23
2022-11-27T13:19:14.792Z,23.24
2022-11-27T13:21:44.822Z,23.23
2022-11-27T13:24:15.389Z,23.23
2022-11-27T13:27:04.555Z,23.21
2022-11-27T13:29:36.493Z,23.21
2022-11-27T13:32:06.782Z,23.20
2022-11-27T13:34:38.470Z,23.19
2022-11-27T13:37:09.116Z,23.19
2022-11-27T13:39:41.057Z,23.17
2022-11-27T13:42:22.975Z,23.16
2022-11-27T13:45:03.981Z,23.17
2022-11-27T13:47:39.258Z,23.16
2022-11-27T13:50:13.826Z,23.15
2022-11-27T13:53:05.114Z,23.16
2022-11-27T13:55:36.388Z,23.14
2022-11-27T13:58:06.513Z,23.15
2022-11-27T14:00:39.066Z,23.13
2022-11-27T14:03:10.909Z,23.13
2022-11-27T14:05:45.806Z,23.11
2022-11-27T14:08:29.328Z,23.10
2022-11-27T14:11:04.669Z,23.09
2022-11-27T14:13:48.373Z,23.09
2022-11-27T14:16:30.257Z,23.08
2022-11-27T14:19:05.009Z,23.07
2022-11-27T14:21:45.179Z,23.06
2022-11-27T14:24:27.226Z,23.06
2022-11-27T14:26:58.035Z,23.05
2022-11-27T14:29:29.610Z,23.02
2022-11-27T14:32:03.384Z,23.03
2022-11-27T14:34:51.874Z,23.02
2022-11-27T14:37:29.137Z,23.01
2022-11-27T14:39:59.164Z,22.99
2022-11-27T14:42:31.244Z,22.99
2022-11-27T14:45:09.576Z,22.97
2022-11-27T14:47:41.197Z,22.95
2022-11-27T14:50:13.203Z,22.96
2022-11-27T14:52:44.753Z,22.95
2022-11-27T14:55:21.156Z,22.96
2022-11-27T14:57:51.656Z,22.97
2022-11-27T15:00:25.580Z,22.97
2022-11-27T15:02:55.550Z,22.97
2022-11-27T15:05:27.560Z,22.98
2022-11-27T15:07:59.672Z,22.97
2022-11-27T15:10:38.022Z,22.96
2022-11-27T15:13:08.807Z,22.96
2022-11-27T15:15:44.123Z,22.96
2022-11-27T15:18:18.513Z,22.95
2022-11-27T15:20:48.639Z,22.94
2022-11-27T15:23:29.259Z,22.92
2022-11-27T15:26:16.780Z,22.90
2022-11-27T15:28:45.696Z,22.87
2022-11-27T15:31:27.288Z,22.87
2022-11-27T15:34:21.603Z,22.86
2022-11-27T15:36:53.407Z,22.83
2022-11-27T15:39:38.971Z,22.82
2022-11-27T15:42:11.461Z,22.81
2022-11-27T15:44:41.890Z,22.79
2022-11-27T15:47:26.958Z,22.78
2022-11-27T15:49:57.384Z,22.76
2022-11-27T15:52:28.324Z,22.74
2022-11-27T15:54:58.720Z,22.75
2022-11-27T15:57:34.209Z,22.70
2022-11-27T16:00:04.883Z,22.76
2022-11-27T16:02:34.906Z,22.76
2022-11-27T16:06:33.947Z,22.92
2022-11-27T16:09:04.065Z,22.88
2022-11-27T16:11:35.002Z,22.85
2022-11-27T16:14:05.667Z,22.82
2022-11-27T16:16:36.573Z,22.77
2022-11-27T16:19:07.313Z,22.72
2022-11-27T16:21:37.613Z,22.70
2022-11-27T16:24:08.969Z,22.68
2022-11-27T16:26:38.989Z,22.68
2022-11-27T16:29:09.567Z,22.65
2022-11-27T16:31:39.803Z,22.62
2022-11-27T16:34:09.924Z,22.60
2022-11-27T16:36:40.789Z,22.62
2022-11-27T16:39:10.576Z,22.62
2022-11-27T16:41:40.867Z,22.68
2022-11-27T16:44:15.148Z,22.74
2022-11-27T16:46:45.299Z,22.82
2022-11-27T16:49:15.271Z,22.88
2022-11-27T16:51:45.349Z,22.94
2022-11-27T16:54:15.296Z,22.99
2022-11-27T16:56:45.249Z,23.04
2022-11-27T16:59:16.228Z,23.09
2022-11-27T17:01:46.323Z,23.13
2022-11-27T17:04:19.303Z,23.17
2022-11-27T17:06:49.879Z,23.21
2022-11-27T17:09:19.818Z,23.26
2022-11-27T17:11:49.695Z,23.31
2022-11-27T17:14:21.307Z,23.35
2022-11-27T17:16:51.297Z,23.37
2022-11-27T17:19:22.950Z,23.38
2022-11-27T17:21:53.084Z,23.38
2022-11-27T17:24:23.008Z,23.39
2022-11-27T17:26:54.079Z,23.40
2022-11-27T17:29:24.335Z,23.41
2022-11-27T17:31:55.423Z,23.41
2022-11-27T17:34:26.466Z,23.44
2022-11-27T17:36:58.507Z,23.46
2022-11-27T17:39:28.655Z,23.44
2022-11-27T17:41:58.774Z,23.47
2022-11-27T17:44:28.859Z,23.48
2022-11-27T17:46:58.523Z,23.48
2022-11-27T17:49:28.712Z,23.48
2022-11-27T17:52:04.723Z,23.48
2022-11-27T17:54:31.039Z,23.49
2022-11-27T17:57:00.999Z,23.49
2022-11-27T17:59:31.056Z,23.49
2022-11-27T18:02:01.146Z,23.50
2022-11-27T18:04:31.859Z,23.50
2022-11-27T18:07:01.876Z,23.50
2022-11-27T18:09:31.887Z,23.50
2022-11-27T18:12:01.957Z,23.51
2022-11-27T18:14:32.006Z,23.51
2022-11-27T18:17:03.375Z,23.50
2022-11-27T18:19:33.675Z,23.50
2022-11-27T18:22:03.632Z,23.52
2022-11-27T18:24:33.547Z,23.51
2022-11-27T18:27:08.617Z,23.51
2022-11-27T18:29:35.118Z,23.51
2022-11-27T18:32:05.269Z,23.51
2022-11-27T18:34:35.361Z,23.49
2022-11-27T18:37:05.788Z,23.50
2022-11-27T18:39:36.070Z,23.49
2022-11-27T18:42:06.135Z,23.46
2022-11-27T18:44:39.580Z,23.44
2022-11-27T18:47:09.515Z,23.41
2022-11-27T18:49:43.127Z,23.39
2022-11-27T18:52:13.853Z,23.38
2022-11-27T18:54:45.070Z,23.37
2022-11-27T18:57:15.344Z,23.34
2022-11-27T18:59:51.174Z,23.31
2022-11-27T19:02:21.372Z,23.28
2022-11-27T19:04:51.376Z,23.26
2022-11-27T19:07:21.590Z,23.23
2022-11-27T19:09:51.987Z,23.21
2022-11-27T19:12:21.961Z,23.18
2022-11-27T19:14:52.021Z,23.18
2022-11-27T19:17:26.786Z,23.26
2022-11-27T19:19:56.161Z,23.27
2022-11-27T19:22:27.118Z,23.28
2022-11-27T19:24:57.244Z,23.28
2022-11-27T19:27:27.667Z,23.31
2022-11-27T19:29:58.107Z,23.29
2022-11-27T19:32:28.743Z,23.27
2022-11-27T19:35:01.911Z,23.28
2022-11-27T19:37:34.883Z,23.31
2022-11-27T19:40:03.636Z,23.31
2022-11-27T19:42:34.196Z,23.27
2022-11-27T19:45:04.396Z,23.26
2022-11-27T19:47:34.878Z,23.22
2022-11-27T19:50:04.763Z,23.25
2022-11-27T19:52:36.526Z,23.23
2022-11-27T19:55:07.217Z,23.26
2022-11-27T19:57:37.379Z,23.29
2022-11-27T20:00:09.053Z,23.28
2022-11-27T20:02:39.469Z,23.25
2022-11-27T20:05:10.390Z,23.28
2022-11-27T20:07:40.583Z,23.25
2022-11-27T20:10:11.185Z,23.26
2022-11-27T20:12:42.139Z,23.23
2022-11-27T20:15:17.772Z,23.24
2022-11-27T20:17:47.739Z,23.30
2022-11-27T20:20:17.761Z,23.31
2022-11-27T20:22:47.823Z,23.25
2022-11-27T20:25:19.980Z,23.23
2022-11-27T20:27:49.923Z,23.18
2022-11-27T20:30:19.993Z,23.16
2022-11-27T20:32:50.320Z,23.14
2022-11-27T20:35:20.578Z,23.13
2022-11-27T20:37:51.007Z,23.13
2022-11-27T20:40:22.480Z,23.10
2022-11-27T20:42:52.840Z,23.11
2022-11-27T20:45:22.994Z,23.17
2022-11-27T20:47:54.384Z,23.20
2022-11-27T20:50:25.316Z,23.23
2022-11-27T20:52:55.650Z,23.22
2022-11-27T20:55:26.987Z,23.20
2022-11-27T20:57:57.330Z,23.18
2022-11-27T21:00:27.880Z,23.18
2022-11-27T21:02:59.140Z,23.15
2022-11-27T21:05:30.001Z,23.12
2022-11-27T21:08:01.857Z,23.16
2022-11-27T21:10:32.051Z,23.21
2022-11-27T21:13:03.887Z,23.21
2022-11-27T21:15:34.214Z,23.21
2022-11-27T21:18:04.296Z,23.25
2022-11-27T21:20:34.577Z,23.26
2022-11-27T21:23:04.584Z,23.22
2022-11-27T21:25:34.605Z,23.27
2022-11-27T21:28:05.047Z,23.26
2022-11-27T21:30:35.033Z,23.28
2022-11-27T21:33:06.459Z,23.26
2022-11-27T21:35:40.167Z,23.29
2022-11-27T21:38:08.876Z,23.28
2022-11-27T21:40:39.201Z,23.28
2022-11-27T21:43:09.325Z,23.30
2022-11-27T21:45:39.745Z,23.32
2022-11-27T21:48:14.059Z,23.36
2022-11-27T21:50:41.921Z,23.36
2022-11-27T21:53:12.032Z,23.38
2022-11-27T21:55:42.948Z,23.37
2022-11-27T21:58:12.893Z,23.38
2022-11-27T22:00:43.160Z,23.44
2022-11-27T22:03:15.991Z,23.40
2022-11-27T22:05:45.966Z,23.38
2022-11-27T22:11:03.481Z,23.34
2022-11-27T22:13:33.451Z,23.35
2022-11-27T22:16:03.920Z,23.36
2022-11-27T22:18:33.995Z,23.40
2022-11-27T22:21:08.069Z,23.41
2022-11-27T22:23:39.033Z,23.40
2022-11-27T22:26:11.836Z,23.34
2022-11-27T22:28:42.502Z,23.36
2022-11-27T22:31:20.966Z,23.31
2022-11-27T22:33:51.319Z,23.27
2022-11-27T22:36:28.957Z,23.23
2022-11-27T22:38:59.059Z,23.20
2022-11-27T22:41:29.986Z,23.20
2022-11-27T22:44:01.243Z,23.19
2022-11-27T22:46:36.373Z,23.21
2022-11-27T22:49:08.104Z,23.21
2022-11-27T22:51:38.771Z,23.19
2022-11-27T22:54:10.648Z,23.18
2022-11-27T22:56:40.542Z,23.15
2022-11-27T22:59:31.785Z,23.14
2022-11-27T23:01:42.668Z,23.14
2022-11-27T23:04:13.446Z,23.11
2022-11-27T23:06:44.854Z,23.06
2022-11-27T23:09:15.323Z,23.05
2022-11-27T23:11:45.386Z,23.01
2022-11-27T23:14:15.573Z,23.01
2022-11-27T23:16:45.934Z,23.01
2022-11-27T23:19:16.027Z,23.02
2022-11-27T23:21:46.289Z,22.99
2022-11-27T23:24:16.865Z,22.99
2022-11-27T23:26:46.802Z,23.03
2022-11-27T23:29:17.228Z,22.99
2022-11-27T23:31:57.299Z,22.95
2022-11-27T23:34:19.605Z,22.93
2022-11-27T23:36:49.817Z,22.90
2022-11-27T23:39:20.020Z,22.89
2022-11-27T23:41:50.303Z,22.86
2022-11-27T23:46:56.831Z,22.84
2022-11-27T23:49:27.145Z,22.78
2022-11-27T23:51:57.449Z,22.78
2022-11-27T23:54:28.825Z,22.77
2022-11-27T23:56:58.897Z,22.77
2022-11-27T23:59:29.513Z,22.76
